createdAt,value
2024-03-26T00:04:17.854Z,84.60
2024-03-26T00:09:20.863Z,84.62
2024-03-26T00:14:23.661Z,84.54
2024-03-26T00:19:26.458Z,84.37
2024-03-26T00:24:29.573Z,84.47
2024-03-26T00:29:32.574Z,84.69
2024-03-26T00:34:35.785Z,84.65
2024-03-26T00:39:38.792Z,84.39
2024-03-26T00:44:41.624Z,84.57
2024-03-26T00:49:44.500Z,84.48
2024-03-26T00:54:47.816Z,83.76
2024-03-26T00:59:50.823Z,84.19
2024-03-26T01:04:54.029Z,84.70
2024-03-26T01:09:56.934Z,85.24
2024-03-26T01:14:59.844Z,85.49
2024-03-26T01:20:02.742Z,85.75
2024-03-26T01:25:08.550Z,85.36
2024-03-26T01:30:11.942Z,85.34
2024-03-26T01:35:15.164Z,85.45
2024-03-26T01:40:18.263Z,85.29
2024-03-26T01:45:21.159Z,84.50
2024-03-26T01:50:24.183Z,84.13
2024-03-26T01:55:27.686Z,83.94
2024-03-26T02:00:31.768Z,84.08
2024-03-26T02:05:34.622Z,84.00
2024-03-26T02:10:37.523Z,83.44
2024-03-26T02:15:41.255Z,83.52
2024-03-26T02:20:45.724Z,84.22
2024-03-26T02:25:49.417Z,83.13
2024-03-26T02:30:52.331Z,83.36
2024-03-26T02:35:55.226Z,83.32
2024-03-26T02:40:58.123Z,83.80
2024-03-26T02:46:00.926Z,83.72
2024-03-26T02:51:04.246Z,83.93
2024-03-26T02:56:07.253Z,83.47
2024-03-26T03:01:12.000Z,83.49
2024-03-26T03:06:14.892Z,83.58
2024-03-26T03:11:17.702Z,83.59
2024-03-26T03:16:20.603Z,83.63
2024-03-26T03:21:23.506Z,83.72
2024-03-26T03:26:26.410Z,83.80
2024-03-26T03:31:30.955Z,83.96
2024-03-26T03:36:33.961Z,83.93
2024-03-26T03:41:36.763Z,84.21
2024-03-26T03:46:39.661Z,84.40
2024-03-26T03:51:42.568Z,85.17
2024-03-26T03:56:45.490Z,84.82
2024-03-26T04:01:49.043Z,84.90
2024-03-26T04:06:51.899Z,84.51
2024-03-26T04:11:55.442Z,84.51
2024-03-26T04:17:01.013Z,84.58
2024-03-26T04:22:03.987Z,85.13
2024-03-26T04:27:06.908Z,84.96
2024-03-26T04:32:09.895Z,84.91
2024-03-26T04:37:12.906Z,86.08
2024-03-26T04:42:15.714Z,85.05
2024-03-26T04:47:18.931Z,85.27
2024-03-26T04:52:21.928Z,85.08
2024-03-26T04:57:24.833Z,86.06
2024-03-26T05:02:27.840Z,87.20
2024-03-26T05:07:30.747Z,86.38
2024-03-26T05:12:33.644Z,85.53
2024-03-26T05:17:36.551Z,85.24
2024-03-26T05:22:39.663Z,86.81
2024-03-26T05:27:42.665Z,86.54
2024-03-26T05:32:45.564Z,86.35
2024-03-26T05:37:50.120Z,87.33
2024-03-26T05:42:53.015Z,88.19
2024-03-26T05:47:55.957Z,86.04
2024-03-26T05:53:00.352Z,85.61
2024-03-26T05:58:03.674Z,80.80
2024-03-26T06:03:06.998Z,74.66
2024-03-26T06:08:09.997Z,70.13
2024-03-26T06:13:13.036Z,61.02
2024-03-26T06:18:16.540Z,58.94
2024-03-26T06:23:19.531Z,55.93
2024-03-26T06:28:23.045Z,53.45
2024-03-26T06:33:26.719Z,49.66
2024-03-26T06:38:30.701Z,47.04
2024-03-26T06:43:33.702Z,45.71
2024-03-26T06:48:36.611Z,39.52
2024-03-26T06:53:39.518Z,43.49
2024-03-26T06:58:46.418Z,41.00
2024-03-26T07:03:49.320Z,40.42
2024-03-26T07:08:52.544Z,38.82
2024-03-26T07:13:55.433Z,34.65
2024-03-26T07:18:58.336Z,31.70
2024-03-26T07:24:01.253Z,36.85
2024-03-26T07:29:04.155Z,35.89
2024-03-26T07:34:07.063Z,36.86
2024-03-26T07:39:16.722Z,36.09
2024-03-26T07:44:19.772Z,34.54
2024-03-26T07:49:22.725Z,37.03
2024-03-26T07:54:25.631Z,33.82
2024-03-26T07:59:28.746Z,33.73
2024-03-26T08:04:31.651Z,35.20
2024-03-26T08:09:34.764Z,35.78
2024-03-26T08:14:40.709Z,35.06
2024-03-26T08:19:43.736Z,34.84
2024-03-26T08:24:46.514Z,34.81
2024-03-26T08:29:49.544Z,34.85
2024-03-26T08:34:52.446Z,32.49
2024-03-26T08:39:57.090Z,32.05
2024-03-26T08:45:00.288Z,34.35
2024-03-26T08:50:03.925Z,38.27
2024-03-26T08:55:07.403Z,41.72
2024-03-26T09:00:12.046Z,43.27
2024-03-26T09:05:14.997Z,45.33
2024-03-26T09:10:17.910Z,47.78
2024-03-26T09:15:20.821Z,48.39
2024-03-26T09:20:23.705Z,48.67
2024-03-26T09:25:26.692Z,48.72
2024-03-26T09:30:29.720Z,49.62
2024-03-26T09:35:32.626Z,50.51
2024-03-26T09:40:36.042Z,51.36
2024-03-26T09:45:38.948Z,51.78
2024-03-26T09:50:43.521Z,52.85
2024-03-26T09:55:47.519Z,52.96
2024-03-26T10:00:51.346Z,51.75
2024-03-26T10:05:55.002Z,52.93
2024-03-26T10:10:57.969Z,54.62
2024-03-26T10:16:01.561Z,54.89
2024-03-26T10:21:09.113Z,53.45
2024-03-26T10:26:12.108Z,52.75
2024-03-26T10:31:15.235Z,52.64
2024-03-26T10:36:18.424Z,53.23
2024-03-26T10:41:51.234Z,52.04
2024-03-26T10:46:55.169Z,51.29
2024-03-26T10:52:01.253Z,50.67
2024-03-26T10:57:05.250Z,51.15
2024-03-26T11:02:09.922Z,51.82
2024-03-26T11:07:14.841Z,51.84
2024-03-26T11:12:22.311Z,52.07
2024-03-26T11:17:25.793Z,51.78
2024-03-26T11:22:28.652Z,50.98
2024-03-26T11:27:32.231Z,50.77
2024-03-26T11:32:35.229Z,49.80
2024-03-26T11:37:40.518Z,49.25
2024-03-26T11:42:45.800Z,49.91
2024-03-26T11:47:48.952Z,49.99
2024-03-26T11:52:51.865Z,49.48
2024-03-26T11:57:55.179Z,48.38
2024-03-26T12:02:58.177Z,48.13
2024-03-26T12:08:01.186Z,48.85
2024-03-26T12:13:05.646Z,48.14
2024-03-26T12:18:08.539Z,48.74
2024-03-26T12:23:11.538Z,48.85
2024-03-26T12:28:14.663Z,47.89
2024-03-26T12:33:19.502Z,48.43
2024-03-26T12:38:22.810Z,48.15
2024-03-26T12:43:25.815Z,48.12
2024-03-26T12:48:29.489Z,48.50
2024-03-26T12:53:32.448Z,48.97
2024-03-26T12:58:35.558Z,49.72
2024-03-26T13:03:38.642Z,49.40
2024-03-26T13:08:41.669Z,50.50
2024-03-26T13:13:46.597Z,50.25
2024-03-26T13:18:49.530Z,50.76
2024-03-26T13:23:52.537Z,50.53
2024-03-26T13:28:55.441Z,49.27
2024-03-26T13:33:58.444Z,49.22
2024-03-26T13:39:01.663Z,48.96
2024-03-26T13:44:04.860Z,48.67
2024-03-26T13:49:16.388Z,48.50
2024-03-26T13:54:19.574Z,47.30
2024-03-26T13:59:22.482Z,47.04
2024-03-26T14:04:25.394Z,47.44
2024-03-26T14:09:29.012Z,48.14
2024-03-26T14:14:31.924Z,49.13
2024-03-26T14:19:34.925Z,49.61
2024-03-26T14:24:37.831Z,50.21
2024-03-26T14:29:40.810Z,50.98
2024-03-26T14:34:43.742Z,51.07
2024-03-26T14:39:46.645Z,50.36
2024-03-26T14:44:49.767Z,50.76
2024-03-26T14:49:52.761Z,51.03
2024-03-26T14:54:55.978Z,51.38
2024-03-26T14:59:59.080Z,51.73
2024-03-26T15:05:05.639Z,52.32
2024-03-26T15:10:08.881Z,52.24
2024-03-26T15:15:11.945Z,52.49
2024-03-26T15:20:18.181Z,52.79
2024-03-26T15:25:23.744Z,53.65
2024-03-26T15:30:45.684Z,54.39
2024-03-26T15:35:48.492Z,55.32
2024-03-26T15:40:51.401Z,55.90
2024-03-26T15:45:54.403Z,56.27
2024-03-26T15:50:57.405Z,56.95
2024-03-26T15:56:00.334Z,57.67
2024-03-26T16:01:03.419Z,58.16
2024-03-26T16:06:07.423Z,58.65
2024-03-26T16:11:13.854Z,59.19
2024-03-26T16:16:17.258Z,59.89
2024-03-26T16:21:20.416Z,60.40
2024-03-26T16:26:23.371Z,61.17
2024-03-26T16:31:26.279Z,61.66
2024-03-26T16:36:29.381Z,61.97
2024-03-26T16:41:35.310Z,62.18
2024-03-26T16:46:39.767Z,62.42
2024-03-26T16:51:43.866Z,62.59
2024-03-26T16:56:46.840Z,62.93
2024-03-26T17:01:50.048Z,63.13
2024-03-26T17:06:52.959Z,63.42
2024-03-26T17:11:55.850Z,63.71
2024-03-26T17:17:09.642Z,63.92
2024-03-26T17:22:17.549Z,64.00
2024-03-26T17:27:20.646Z,64.05
2024-03-26T17:32:23.885Z,64.38
2024-03-26T17:37:26.815Z,64.65
2024-03-26T17:42:33.556Z,65.09
2024-03-26T17:47:36.772Z,65.56
2024-03-26T17:52:40.085Z,65.74
2024-03-26T17:57:43.088Z,66.22
2024-03-26T18:02:49.636Z,66.40
2024-03-26T18:07:52.592Z,66.66
2024-03-26T18:12:55.487Z,67.07
2024-03-26T18:17:58.412Z,67.40
2024-03-26T18:23:01.395Z,67.53
2024-03-26T18:28:05.017Z,67.53
2024-03-26T18:33:07.923Z,67.46
2024-03-26T18:38:10.832Z,67.32
2024-03-26T18:43:13.835Z,67.16
2024-03-26T18:48:17.088Z,67.10
2024-03-26T18:53:20.062Z,67.17
2024-03-26T18:58:22.970Z,67.23
2024-03-26T19:03:26.477Z,67.25
2024-03-26T19:08:29.526Z,67.18
2024-03-26T19:13:35.666Z,67.13
2024-03-26T19:18:38.789Z,67.14
2024-03-26T19:23:41.882Z,67.35
2024-03-26T19:28:44.786Z,67.40
2024-03-26T19:33:49.131Z,67.48
2024-03-26T19:38:53.255Z,67.50
2024-03-26T19:43:56.507Z,67.56
2024-03-26T19:48:59.788Z,67.57
2024-03-26T19:54:02.958Z,67.61
2024-03-26T19:59:05.898Z,67.81
2024-03-26T20:04:09.355Z,67.93
2024-03-26T20:09:12.536Z,67.90
2024-03-26T20:14:15.745Z,67.94
2024-03-26T20:19:18.716Z,68.00
2024-03-26T20:24:22.282Z,68.04
2024-03-26T20:29:25.291Z,67.94
2024-03-26T20:34:31.144Z,67.85
2024-03-26T20:39:34.156Z,67.80
2024-03-26T20:44:37.485Z,67.73
2024-03-26T20:49:40.888Z,67.71
2024-03-26T20:54:44.101Z,67.76
2024-03-26T20:59:47.500Z,67.85
2024-03-26T21:04:50.820Z,67.99
2024-03-26T21:09:53.966Z,68.10
2024-03-26T21:14:57.044Z,68.28
2024-03-26T21:20:01.892Z,68.53
2024-03-26T21:25:06.775Z,68.92
2024-03-26T21:30:10.503Z,69.10
2024-03-26T21:35:13.784Z,69.46
2024-03-26T21:40:17.207Z,69.76
2024-03-26T21:45:20.099Z,70.07
2024-03-26T21:50:23.112Z,70.21
2024-03-26T21:55:26.108Z,70.34
2024-03-26T22:00:29.059Z,70.49
2024-03-26T22:05:32.941Z,70.71
2024-03-26T22:10:38.611Z,70.80
2024-03-26T22:15:42.917Z,70.93
2024-03-26T22:20:55.796Z,70.90
2024-03-26T22:26:02.096Z,70.97
2024-03-26T22:31:06.750Z,70.95
2024-03-26T22:36:10.185Z,71.00
2024-03-26T22:41:13.032Z,71.02
2024-03-26T22:46:15.934Z,71.15
2024-03-26T22:51:18.738Z,71.22
2024-03-26T22:56:21.964Z,71.35
2024-03-26T23:01:24.916Z,71.50
2024-03-26T23:06:27.970Z,71.55
2024-03-26T23:11:31.195Z,71.52
2024-03-26T23:16:34.080Z,71.44
2024-03-26T23:21:37.097Z,71.48
2024-03-26T23:26:40.200Z,71.66
2024-03-26T23:31:43.204Z,71.71
2024-03-26T23:36:46.103Z,71.79
2024-03-26T23:41:49.217Z,71.83
2024-03-26T23:46:52.117Z,71.90
2024-03-26T23:51:55.024Z,72.04
2024-03-26T23:56:57.827Z,72.09
